Time;durP1;ratioP1;P1;durP2;ratioP2;P2;SDS_P1;SDS_P2;PMS_P1;PMS_P2;Temp;Humidity;BMP_temperature;BMP_pressure;BME280_temperature;BME280_humidity;BME280_pressure;Samples;Min_cycle;Max_cycle;Signal;HPM_P1;HPM_P2
2022/03/18 00:00:14;;;;;;;11.07;8.23;;;;;;;;;;5115403;28;20404;-52
2022/03/18 00:02:40;;;;;;;9.10;7.73;;;;;;;;;;5114697;28;20405;-59
2022/03/18 00:05:11;;;;;;;15.20;8.67;;;;;;;;;;5115029;28;20413;-50
2022/03/18 00:07:38;;;;;;;14.60;7.50;;;;;;;;;;5115366;28;20451;-51
2022/03/18 00:10:04;;;;;;;13.53;7.80;;;;;;;;;;5115291;28;20944;-49
2022/03/18 00:12:33;;;;;;;9.40;6.67;;;;;;;;;;5115211;28;20470;-55
2022/03/18 00:14:59;;;;;;;11.07;7.90;;;;;;;;;;5115089;28;20401;-52
2022/03/18 00:17:25;;;;;;;12.07;7.47;;;;;;;;;;5096798;28;20420;-50
2022/03/18 00:19:52;;;;;;;11.53;7.43;;;;;;;;;;5114863;28;20847;-49
2022/03/18 00:22:19;;;;;;;14.73;7.27;;;;;;;;;;5115186;28;20479;-52
2022/03/18 00:24:45;;;;;;;12.13;7.70;;;;;;;;;;5114946;28;20420;-50
2022/03/18 00:27:12;;;;;;;13.90;7.97;;;;;;;;;;5114623;28;20412;-50
2022/03/18 00:29:38;;;;;;;8.50;7.00;;;;;;;;;;5114835;28;20525;-49
2022/03/18 00:32:05;;;;;;;8.97;7.00;;;;;;;;;;5114800;28;20413;-50
2022/03/18 00:34:31;;;;;;;9.33;6.40;;;;;;;;;;5114871;28;20405;-54
2022/03/18 00:36:57;;;;;;;11.30;6.53;;;;;;;;;;5114664;28;20431;-51
2022/03/18 00:39:23;;;;;;;8.40;6.27;;;;;;;;;;5114699;28;20446;-51
2022/03/18 00:41:49;;;;;;;9.00;6.50;;;;;;;;;;5114805;28;20412;-49
2022/03/18 00:44:15;;;;;;;7.63;6.57;;;;;;;;;;5114643;28;20807;-50
2022/03/18 00:46:41;;;;;;;13.37;6.50;;;;;;;;;;5114626;28;20520;-53
2022/03/18 00:52:05;;;;;;;13.00;6.80;;;;;;;;;;5114464;28;20404;-50
2022/03/18 00:54:32;;;;;;;8.37;6.60;;;;;;;;;;5114452;28;20466;-54
2022/03/18 00:56:58;;;;;;;6.93;5.90;;;;;;;;;;5114316;28;20396;-51
2022/03/18 00:59:24;;;;;;;13.87;6.87;;;;;;;;;;5114322;28;20408;-52
2022/03/18 01:01:53;;;;;;;9.93;5.90;;;;;;;;;;5114159;28;20469;-53
2022/03/18 01:04:22;;;;;;;13.83;6.00;;;;;;;;;;5114149;28;20491;-53
2022/03/18 01:06:55;;;;;;;8.17;6.13;;;;;;;;;;5114012;28;20405;-52
2022/03/18 01:09:21;;;;;;;15.27;6.63;;;;;;;;;;5114044;28;20563;-52
2022/03/18 01:11:48;;;;;;;8.83;6.37;;;;;;;;;;5114094;28;20412;-58
2022/03/18 01:14:14;;;;;;;10.30;6.43;;;;;;;;;;5114007;28;20436;-55
2022/03/18 01:16:40;;;;;;;12.53;6.90;;;;;;;;;;5113855;28;20411;-49
2022/03/18 01:19:06;;;;;;;16.23;6.30;;;;;;;;;;5113937;28;20452;-50
2022/03/18 01:21:32;;;;;;;9.63;7.03;;;;;;;;;;5095535;28;20444;-54
2022/03/18 01:23:58;;;;;;;10.80;7.27;;;;;;;;;;5113798;28;20401;-55
2022/03/18 01:26:24;;;;;;;10.83;6.43;;;;;;;;;;5113882;28;20414;-55
2022/03/18 01:28:51;;;;;;;13.90;7.50;;;;;;;;;;5113686;28;21007;-51
2022/03/18 01:31:17;;;;;;;13.73;7.10;;;;;;;;;;5113758;28;20405;-55
2022/03/18 01:33:43;;;;;;;9.50;6.60;;;;;;;;;;5113701;28;20408;-56
2022/03/18 01:36:11;;;;;;;13.10;6.27;;;;;;;;;;5113892;28;20401;-52
2022/03/18 01:38:37;;;;;;;16.47;7.10;;;;;;;;;;5113756;28;20417;-54
2022/03/18 01:41:03;;;;;;;13.87;5.97;;;;;;;;;;5095257;28;20497;-53
2022/03/18 01:43:36;;;;;;;16.17;7.50;;;;;;;;;;5113454;28;20404;-56
2022/03/18 01:46:02;;;;;;;15.20;7.63;;;;;;;;;;5113467;28;20743;-56
2022/03/18 01:48:28;;;;;;;11.13;6.97;;;;;;;;;;5113317;28;20477;-58
2022/03/18 01:50:54;;;;;;;14.33;7.47;;;;;;;;;;5113049;28;20432;-52
2022/03/18 01:53:20;;;;;;;12.33;6.67;;;;;;;;;;5113429;28;20409;-50
2022/03/18 01:55:46;;;;;;;9.73;6.53;;;;;;;;;;5113304;28;20408;-52
2022/03/18 01:58:12;;;;;;;20.33;7.33;;;;;;;;;;5095147;28;20432;-50
2022/03/18 02:00:38;;;;;;;13.03;6.43;;;;;;;;;;5113552;28;20408;-52
2022/03/18 02:03:04;;;;;;;10.13;6.40;;;;;;;;;;5113289;28;20462;-53
2022/03/18 02:05:31;;;;;;;12.60;6.47;;;;;;;;;;5113185;28;20458;-49
2022/03/18 02:07:57;;;;;;;13.70;7.30;;;;;;;;;;5113180;28;20917;-49
2022/03/18 02:10:23;;;;;;;19.13;5.93;;;;;;;;;;5113102;28;20442;-50
2022/03/18 02:12:49;;;;;;;10.40;6.43;;;;;;;;;;5112945;28;20400;-52
2022/03/18 02:15:15;;;;;;;13.00;6.60;;;;;;;;;;5112993;28;20416;-53
2022/03/18 02:17:41;;;;;;;26.77;7.60;;;;;;;;;;5112931;28;20401;-51
2022/03/18 02:20:07;;;;;;;12.93;7.00;;;;;;;;;;5113075;28;20513;-50
2022/03/18 02:22:51;;;;;;;15.40;6.23;;;;;;;;;;5113067;28;20402;-51
2022/03/18 02:25:18;;;;;;;15.87;6.40;;;;;;;;;;5112959;28;20994;-50
2022/03/18 02:27:57;;;;;;;18.47;7.73;;;;;;;;;;5112800;28;20816;-53
2022/03/18 02:30:24;;;;;;;12.70;6.03;;;;;;;;;;5113116;28;20413;-54
2022/03/18 02:32:50;;;;;;;9.37;5.83;;;;;;;;;;5112881;28;20760;-50
2022/03/18 02:35:16;;;;;;;11.83;6.50;;;;;;;;;;5112892;28;20412;-52
2022/03/18 02:37:42;;;;;;;14.13;7.47;;;;;;;;;;5112810;28;20397;-54
2022/03/18 02:40:08;;;;;;;10.63;6.80;;;;;;;;;;5112985;28;20412;-50
2022/03/18 02:42:35;;;;;;;11.53;6.07;;;;;;;;;;5113016;28;20409;-54
2022/03/18 02:45:01;;;;;;;9.23;5.87;;;;;;;;;;5112847;28;20427;-54
2022/03/18 02:47:27;;;;;;;11.20;6.37;;;;;;;;;;5112648;28;20401;-57
2022/03/18 02:49:53;;;;;;;11.77;6.13;;;;;;;;;;5112675;28;20416;-59
2022/03/18 02:52:19;;;;;;;20.93;6.70;;;;;;;;;;5094398;28;20424;-52
2022/03/18 02:54:46;;;;;;;14.90;6.00;;;;;;;;;;5112758;28;20417;-52
2022/03/18 02:57:14;;;;;;;12.57;6.37;;;;;;;;;;5112705;28;20401;-54
2022/03/18 02:59:40;;;;;;;10.70;5.67;;;;;;;;;;5094466;28;20424;-54
2022/03/18 03:02:07;;;;;;;10.53;6.00;;;;;;;;;;5112869;28;20428;-48
2022/03/18 03:04:33;;;;;;;11.33;6.53;;;;;;;;;;5097894;28;20466;-54
2022/03/18 03:09:43;;;;;;;12.60;6.50;;;;;;;;;;5116442;28;20608;-49
2022/03/18 03:12:09;;;;;;;16.53;5.83;;;;;;;;;;5116526;28;20419;-52
2022/03/18 03:14:36;;;;;;;12.60;6.80;;;;;;;;;;5116557;28;20423;-53
2022/03/18 03:17:02;;;;;;;12.97;5.80;;;;;;;;;;5116320;28;20432;-48
2022/03/18 03:19:29;;;;;;;9.20;6.40;;;;;;;;;;5116349;28;20468;-54
2022/03/18 03:21:55;;;;;;;14.37;6.43;;;;;;;;;;5116207;28;20416;-50
2022/03/18 03:24:21;;;;;;;8.07;5.30;;;;;;;;;;5098071;28;20413;-53
2022/03/18 03:26:47;;;;;;;20.47;5.90;;;;;;;;;;5116266;28;20409;-55
2022/03/18 03:29:13;;;;;;;21.40;6.60;;;;;;;;;;5097833;28;20529;-51
2022/03/18 03:31:40;;;;;;;17.87;5.53;;;;;;;;;;5116023;28;20393;-55
2022/03/18 03:34:05;;;;;;;10.77;5.60;;;;;;;;;;5116092;28;20428;-52
2022/03/18 03:36:31;;;;;;;13.07;6.20;;;;;;;;;;5097682;28;20417;-50
2022/03/18 03:38:57;;;;;;;11.87;5.53;;;;;;;;;;5115870;28;20425;-54
2022/03/18 03:41:24;;;;;;;13.47;6.10;;;;;;;;;;5115817;28;20793;-52
2022/03/18 03:43:50;;;;;;;16.33;6.37;;;;;;;;;;5115885;28;20764;-50
2022/03/18 03:46:16;;;;;;;17.40;5.57;;;;;;;;;;5115721;28;20816;-59
2022/03/18 03:48:42;;;;;;;10.20;5.77;;;;;;;;;;5115755;28;20563;-51
2022/03/18 03:51:08;;;;;;;12.17;5.60;;;;;;;;;;5115689;28;20533;-50
2022/03/18 03:53:34;;;;;;;17.73;5.83;;;;;;;;;;5115791;28;20421;-49
2022/03/18 03:56:00;;;;;;;14.50;5.93;;;;;;;;;;5115611;28;20397;-50
2022/03/18 03:58:29;;;;;;;18.00;5.70;;;;;;;;;;5097426;28;20778;-49
2022/03/18 04:00:55;;;;;;;20.13;5.50;;;;;;;;;;5115530;28;20406;-48
2022/03/18 04:03:22;;;;;;;8.00;5.20;;;;;;;;;;5115413;28;20474;-54
2022/03/18 04:05:48;;;;;;;21.97;5.47;;;;;;;;;;5115510;28;20476;-58
2022/03/18 04:08:14;;;;;;;11.77;5.40;;;;;;;;;;5115361;28;20471;-54
2022/03/18 04:10:42;;;;;;;15.10;4.83;;;;;;;;;;5115292;28;20762;-55
2022/03/18 04:13:08;;;;;;;10.00;5.30;;;;;;;;;;5115218;28;20419;-54
2022/03/18 04:15:34;;;;;;;18.50;5.83;;;;;;;;;;5115126;28;20401;-51
2022/03/18 04:18:00;;;;;;;14.53;5.70;;;;;;;;;;5115131;28;20401;-53
2022/03/18 04:20:30;;;;;;;6.77;4.80;;;;;;;;;;5115122;28;20412;-55
2022/03/18 04:22:56;;;;;;;17.23;6.20;;;;;;;;;;5115059;28;20413;-52
2022/03/18 04:25:22;;;;;;;10.57;5.20;;;;;;;;;;5115064;28;20401;-50
2022/03/18 04:27:48;;;;;;;13.57;5.80;;;;;;;;;;5114884;28;20452;-55
2022/03/18 04:30:14;;;;;;;9.90;4.90;;;;;;;;;;5114864;28;20422;-52
2022/03/18 04:32:40;;;;;;;15.60;5.30;;;;;;;;;;5115016;28;20408;-50
2022/03/18 04:35:07;;;;;;;9.60;5.23;;;;;;;;;;5115106;28;20445;-51
2022/03/18 04:37:33;;;;;;;10.70;4.87;;;;;;;;;;5114822;28;20409;-49
2022/03/18 04:39:59;;;;;;;14.33;5.67;;;;;;;;;;5114906;28;20443;-49
2022/03/18 04:42:28;;;;;;;11.70;4.93;;;;;;;;;;5114662;28;20405;-49
2022/03/18 04:44:54;;;;;;;18.67;4.83;;;;;;;;;;5114494;28;20985;-52
2022/03/18 04:47:20;;;;;;;17.53;5.30;;;;;;;;;;5114541;28;20440;-52
2022/03/18 04:49:46;;;;;;;18.00;5.93;;;;;;;;;;5114339;28;20502;-50
2022/03/18 04:52:12;;;;;;;18.63;5.40;;;;;;;;;;5114410;28;20401;-55
2022/03/18 04:54:38;;;;;;;13.20;5.47;;;;;;;;;;5114541;28;20744;-51
2022/03/18 04:57:18;;;;;;;15.47;5.50;;;;;;;;;;5114543;28;20396;-52
2022/03/18 04:59:46;;;;;;;26.00;6.00;;;;;;;;;;5114530;28;20397;-59
2022/03/18 05:02:12;;;;;;;23.00;5.57;;;;;;;;;;5095998;28;20931;-49
2022/03/18 05:04:38;;;;;;;12.67;5.33;;;;;;;;;;5114548;28;20822;-51
2022/03/18 05:07:04;;;;;;;30.70;7.00;;;;;;;;;;5114170;28;20804;-54
2022/03/18 05:09:31;;;;;;;17.13;6.00;;;;;;;;;;5114006;28;20507;-51
2022/03/18 05:11:57;;;;;;;15.63;6.00;;;;;;;;;;5114216;28;20411;-54
2022/03/18 05:14:23;;;;;;;14.20;6.00;;;;;;;;;;5095835;28;20443;-48
2022/03/18 05:16:49;;;;;;;9.87;5.27;;;;;;;;;;5113970;28;20409;-53
2022/03/18 05:19:15;;;;;;;13.13;5.93;;;;;;;;;;5113765;28;20468;-57
2022/03/18 05:21:41;;;;;;;21.00;5.77;;;;;;;;;;5113851;28;20766;-54
2022/03/18 05:24:08;;;;;;;17.93;6.70;;;;;;;;;;5114081;28;20528;-50
2022/03/18 05:26:34;;;;;;;9.13;5.73;;;;;;;;;;5112864;28;20397;-53
2022/03/18 05:29:01;;;;;;;14.10;6.27;;;;;;;;;;5113402;28;20537;-51
2022/03/18 05:31:27;;;;;;;9.17;5.53;;;;;;;;;;5113568;28;20412;-52
2022/03/18 05:33:56;;;;;;;19.50;6.20;;;;;;;;;;5113458;28;20898;-51
2022/03/18 05:36:22;;;;;;;17.60;7.37;;;;;;;;;;5113480;28;20402;-52
2022/03/18 05:38:48;;;;;;;26.77;5.97;;;;;;;;;;5113426;28;20502;-50
2022/03/18 05:41:14;;;;;;;15.70;6.83;;;;;;;;;;5113416;28;20886;-54
2022/03/18 05:43:43;;;;;;;14.07;7.80;;;;;;;;;;5113279;28;20499;-52
2022/03/18 05:46:11;;;;;;;16.20;6.50;;;;;;;;;;5113293;28;20454;-51
2022/03/18 05:48:37;;;;;;;17.50;7.57;;;;;;;;;;5113287;28;20553;-51
2022/03/18 05:51:03;;;;;;;22.07;7.03;;;;;;;;;;5113010;28;20401;-58
2022/03/18 05:53:30;;;;;;;28.93;11.80;;;;;;;;;;5113278;28;20905;-52
2022/03/18 05:58:41;;;;;;;16.57;8.20;;;;;;;;;;5113294;28;20469;-51
2022/03/18 06:01:07;;;;;;;10.90;6.13;;;;;;;;;;5113278;28;20433;-52
2022/03/18 06:03:33;;;;;;;12.33;6.30;;;;;;;;;;5112806;28;20420;-55
2022/03/18 06:06:00;;;;;;;14.83;5.87;;;;;;;;;;5113085;28;20409;-53
2022/03/18 06:13:59;;;;;;;25.27;6.37;;;;;;;;;;5113004;28;20468;-57
2022/03/18 06:16:25;;;;;;;17.47;6.40;;;;;;;;;;5112847;28;20401;-52
2022/03/18 06:18:51;;;;;;;16.10;5.80;;;;;;;;;;5112698;28;20461;-53
2022/03/18 06:21:21;;;;;;;12.60;7.07;;;;;;;;;;5112526;28;20423;-55
2022/03/18 06:23:47;;;;;;;14.87;6.83;;;;;;;;;;5094416;28;20421;-55
2022/03/18 06:26:13;;;;;;;19.03;6.23;;;;;;;;;;5112863;28;20409;-48
2022/03/18 06:28:39;;;;;;;14.83;5.50;;;;;;;;;;5112643;28;20453;-52
2022/03/18 06:31:06;;;;;;;9.70;5.90;;;;;;;;;;5112820;28;20919;-62
2022/03/18 06:33:32;;;;;;;11.67;5.37;;;;;;;;;;5112664;28;20397;-56
2022/03/18 06:36:01;;;;;;;19.87;6.50;;;;;;;;;;5112429;28;20920;-59
2022/03/18 06:38:27;;;;;;;12.20;5.50;;;;;;;;;;5116230;28;20458;-59
2022/03/18 06:40:53;;;;;;;9.83;6.60;;;;;;;;;;5116653;28;20408;-57
2022/03/18 06:43:19;;;;;;;9.43;6.17;;;;;;;;;;5116841;28;20401;-58
2022/03/18 06:45:45;;;;;;;19.67;5.80;;;;;;;;;;5116776;28;20484;-57
2022/03/18 06:48:11;;;;;;;23.00;6.60;;;;;;;;;;5116544;28;20543;-60
2022/03/18 06:50:37;;;;;;;13.53;6.10;;;;;;;;;;5116873;28;20415;-54
2022/03/18 06:53:03;;;;;;;10.93;6.03;;;;;;;;;;5116449;28;20404;-58
2022/03/18 06:55:29;;;;;;;17.80;6.60;;;;;;;;;;5116631;28;20412;-55
2022/03/18 06:57:55;;;;;;;15.77;6.40;;;;;;;;;;5116638;28;20401;-52
2022/03/18 07:00:21;;;;;;;20.20;6.63;;;;;;;;;;5116366;28;20431;-51
2022/03/18 07:02:47;;;;;;;23.70;7.03;;;;;;;;;;5116420;28;20412;-52
2022/03/18 07:05:13;;;;;;;14.20;6.67;;;;;;;;;;5116378;28;20409;-51
2022/03/18 07:07:40;;;;;;;27.60;6.65;;;;;;;;;;5116273;28;20412;-55
2022/03/18 07:10:06;;;;;;;10.40;6.07;;;;;;;;;;5116256;28;20416;-56
2022/03/18 07:12:33;;;;;;;23.53;6.43;;;;;;;;;;5116239;28;20427;-55
2022/03/18 07:14:59;;;;;;;11.00;6.30;;;;;;;;;;5097931;28;20431;-48
2022/03/18 07:20:12;;;;;;;24.63;7.30;;;;;;;;;;5116038;28;20466;-50
2022/03/18 07:22:41;;;;;;;17.40;7.13;;;;;;;;;;5116380;28;20427;-51
2022/03/18 07:25:08;;;;;;;17.47;7.17;;;;;;;;;;5116280;28;20405;-53
2022/03/18 07:27:34;;;;;;;20.43;7.17;;;;;;;;;;5116038;28;20764;-50
2022/03/18 07:30:02;;;;;;;28.87;12.90;;;;;;;;;;5116062;28;20427;-51
2022/03/18 07:32:29;;;;;;;16.60;7.77;;;;;;;;;;5115709;28;20412;-49
2022/03/18 07:34:55;;;;;;;19.90;7.20;;;;;;;;;;5115700;28;20916;-51
2022/03/18 07:37:21;;;;;;;20.03;8.10;;;;;;;;;;5115993;28;20405;-50
2022/03/18 07:39:47;;;;;;;20.87;6.50;;;;;;;;;;5115861;28;20785;-51
2022/03/18 07:42:13;;;;;;;18.97;6.87;;;;;;;;;;5115734;28;20404;-55
2022/03/18 07:44:39;;;;;;;19.90;6.67;;;;;;;;;;5097094;28;20416;-51
2022/03/18 07:47:05;;;;;;;23.03;7.50;;;;;;;;;;5115762;28;20424;-55
2022/03/18 07:49:34;;;;;;;23.60;6.90;;;;;;;;;;5096406;28;20476;-51
2022/03/18 07:52:00;;;;;;;20.20;7.30;;;;;;;;;;5115547;28;20405;-50
2022/03/18 07:54:26;;;;;;;27.33;9.63;;;;;;;;;;5115599;28;20481;-50
2022/03/18 07:56:52;;;;;;;24.17;9.50;;;;;;;;;;5115424;28;20945;-49
2022/03/18 07:59:18;;;;;;;30.90;9.53;;;;;;;;;;5115295;28;20962;-51
2022/03/18 08:01:44;;;;;;;12.03;7.03;;;;;;;;;;5115339;28;20405;-53
2022/03/18 08:04:12;;;;;;;21.33;7.30;;;;;;;;;;5115100;28;20409;-56
2022/03/18 08:06:39;;;;;;;20.63;8.20;;;;;;;;;;5115323;28;20423;-52
2022/03/18 08:09:05;;;;;;;17.10;7.27;;;;;;;;;;5115042;28;20802;-53
2022/03/18 08:11:31;;;;;;;19.60;7.43;;;;;;;;;;5115324;28;20400;-52
2022/03/18 08:13:57;;;;;;;18.30;8.17;;;;;;;;;;5111642;28;20933;-55
2022/03/18 08:16:26;;;;;;;15.80;7.57;;;;;;;;;;5113805;28;20409;-58
2022/03/18 08:18:54;;;;;;;18.03;8.00;;;;;;;;;;5114257;28;20514;-58
2022/03/18 08:21:20;;;;;;;15.93;8.67;;;;;;;;;;5114346;28;20492;-55
2022/03/18 08:23:46;;;;;;;24.67;6.50;;;;;;;;;;5094917;28;20421;-54
2022/03/18 08:26:12;;;;;;;24.90;7.80;;;;;;;;;;5113973;28;20445;-53
2022/03/18 08:28:38;;;;;;;31.03;6.60;;;;;;;;;;5114356;28;20464;-58
2022/03/18 08:31:04;;;;;;;13.40;6.10;;;;;;;;;;5114286;28;20512;-59
2022/03/18 08:33:32;;;;;;;15.03;7.20;;;;;;;;;;5107873;28;20416;-55
2022/03/18 08:35:58;;;;;;;17.33;6.73;;;;;;;;;;5096280;28;20397;-61
2022/03/18 08:38:27;;;;;;;16.63;6.03;;;;;;;;;;5114118;28;20761;-55
2022/03/18 08:40:53;;;;;;;20.80;7.07;;;;;;;;;;5105959;28;20501;-55
2022/03/18 08:43:19;;;;;;;21.37;7.13;;;;;;;;;;5075524;28;20532;-59
2022/03/18 08:45:45;;;;;;;24.87;9.50;;;;;;;;;;5106041;28;20421;-59
2022/03/18 08:48:11;;;;;;;17.80;9.17;;;;;;;;;;5113716;28;20535;-57
2022/03/18 08:50:37;;;;;;;18.73;7.37;;;;;;;;;;5095722;28;20418;-53
2022/03/18 08:53:09;;;;;;;16.97;6.17;;;;;;;;;;5093052;28;20402;-56
2022/03/18 08:55:36;;;;;;;12.40;7.00;;;;;;;;;;5093498;28;20925;-57
2022/03/18 08:58:03;;;;;;;18.57;6.00;;;;;;;;;;5075038;28;20428;-58
2022/03/18 09:00:30;;;;;;;23.30;6.70;;;;;;;;;;5092163;28;20410;-57
2022/03/18 09:02:56;;;;;;;17.73;5.90;;;;;;;;;;5093043;28;20398;-58
2022/03/18 09:05:21;;;;;;;14.57;6.10;;;;;;;;;;5093107;28;20408;-56
2022/03/18 09:07:47;;;;;;;14.33;7.73;;;;;;;;;;5111852;28;20765;-57
2022/03/18 09:10:14;;;;;;;18.53;7.40;;;;;;;;;;5113374;28;20413;-61
2022/03/18 09:12:56;;;;;;;19.23;6.00;;;;;;;;;;5113337;28;20411;-61
2022/03/18 09:15:22;;;;;;;14.40;6.27;;;;;;;;;;5095249;28;20993;-60
2022/03/18 09:17:48;;;;;;;12.83;5.73;;;;;;;;;;5113495;28;20437;-58
2022/03/18 09:20:14;;;;;;;13.63;6.30;;;;;;;;;;5112820;28;20448;-55
2022/03/18 09:22:40;;;;;;;20.63;6.10;;;;;;;;;;5112960;28;20492;-55
2022/03/18 09:25:06;;;;;;;12.73;6.80;;;;;;;;;;5113048;28;20405;-54
2022/03/18 09:27:32;;;;;;;16.87;5.87;;;;;;;;;;5113184;28;20406;-56
2022/03/18 09:30:00;;;;;;;14.37;7.30;;;;;;;;;;5113065;28;20460;-58
2022/03/18 09:32:27;;;;;;;12.13;6.00;;;;;;;;;;5094544;28;20473;-54
2022/03/18 09:34:53;;;;;;;14.17;6.17;;;;;;;;;;5112760;28;20776;-54
2022/03/18 09:37:19;;;;;;;15.13;6.90;;;;;;;;;;5113136;28;20401;-52
2022/03/18 09:39:45;;;;;;;12.37;5.83;;;;;;;;;;5112784;28;20413;-57
2022/03/18 09:42:12;;;;;;;17.57;6.53;;;;;;;;;;5112789;28;20754;-58
2022/03/18 09:44:42;;;;;;;12.60;6.17;;;;;;;;;;5112744;28;20833;-55
2022/03/18 09:47:09;;;;;;;16.30;6.90;;;;;;;;;;5112821;28;20401;-53
2022/03/18 09:49:36;;;;;;;26.57;6.70;;;;;;;;;;5112857;28;20468;-56
2022/03/18 09:52:03;;;;;;;19.23;6.87;;;;;;;;;;5112872;28;20773;-54
2022/03/18 09:54:30;;;;;;;12.03;5.97;;;;;;;;;;5112502;28;20484;-55
2022/03/18 09:56:57;;;;;;;16.40;7.27;;;;;;;;;;5112380;28;20409;-52
2022/03/18 09:59:24;;;;;;;14.50;7.40;;;;;;;;;;5112700;28;20433;-52
2022/03/18 10:01:51;;;;;;;22.40;8.07;;;;;;;;;;5094503;28;20413;-54
2022/03/18 10:04:17;;;;;;;21.40;8.30;;;;;;;;;;5111838;28;20503;-58
2022/03/18 10:06:46;;;;;;;17.47;9.40;;;;;;;;;;5111471;28;20401;-53
2022/03/18 10:09:14;;;;;;;20.77;9.80;;;;;;;;;;5093293;28;20464;-53
2022/03/18 10:11:43;;;;;;;15.03;8.00;;;;;;;;;;5112040;28;20408;-56
2022/03/18 10:14:17;;;;;;;15.27;6.40;;;;;;;;;;5112126;28;20473;-54
2022/03/18 10:16:44;;;;;;;18.13;9.87;;;;;;;;;;5094376;28;20413;-58
2022/03/18 10:19:21;;;;;;;18.97;7.73;;;;;;;;;;5111588;28;20495;-58
2022/03/18 10:21:56;;;;;;;13.80;8.23;;;;;;;;;;5111548;28;20418;-53
2022/03/18 10:24:31;;;;;;;22.93;6.77;;;;;;;;;;5112136;28;20462;-54
2022/03/18 10:27:16;;;;;;;17.60;7.47;;;;;;;;;;5112190;28;20758;-57
2022/03/18 10:29:43;;;;;;;16.53;7.40;;;;;;;;;;5093642;28;20465;-61
2022/03/18 10:32:09;;;;;;;11.97;6.60;;;;;;;;;;5112170;28;20429;-57
2022/03/18 10:37:21;;;;;;;15.53;8.50;;;;;;;;;;5112100;28;20470;-58
2022/03/18 10:39:50;;;;;;;27.73;7.90;;;;;;;;;;5112183;28;20417;-58
2022/03/18 10:42:18;;;;;;;15.57;8.50;;;;;;;;;;5093629;28;20500;-55
2022/03/18 10:44:46;;;;;;;20.30;8.50;;;;;;;;;;5112166;28;20416;-56
2022/03/18 10:47:28;;;;;;;12.70;8.00;;;;;;;;;;5112037;28;20397;-58
2022/03/18 10:50:13;;;;;;;17.60;8.70;;;;;;;;;;5111891;28;20460;-62
2022/03/18 10:53:01;;;;;;;21.33;9.87;;;;;;;;;;5112096;28;20405;-59
2022/03/18 10:55:34;;;;;;;20.23;10.73;;;;;;;;;;5112012;28;20931;-55
2022/03/18 10:58:01;;;;;;;19.27;11.23;;;;;;;;;;5111853;28;20461;-58
2022/03/18 11:00:29;;;;;;;29.23;11.70;;;;;;;;;;5111852;28;20396;-60
2022/03/18 11:02:58;;;;;;;20.40;9.27;;;;;;;;;;5111889;28;20929;-56
2022/03/18 11:05:25;;;;;;;16.17;9.60;;;;;;;;;;5093589;28;20409;-60
2022/03/18 11:07:53;;;;;;;16.13;10.20;;;;;;;;;;5111793;28;20447;-60
2022/03/18 11:13:06;;;;;;;13.23;8.20;;;;;;;;;;5111925;28;20531;-58
2022/03/18 11:15:33;;;;;;;19.50;9.67;;;;;;;;;;5111927;28;20409;-55
2022/03/18 11:18:03;;;;;;;22.73;10.50;;;;;;;;;;5111651;28;20484;-64
2022/03/18 11:20:33;;;;;;;48.27;8.97;;;;;;;;;;5111074;28;20452;-52
2022/03/18 11:22:59;;;;;;;14.93;7.90;;;;;;;;;;5093532;28;20443;-52
2022/03/18 11:25:26;;;;;;;18.53;8.80;;;;;;;;;;5115198;28;20450;-52
2022/03/18 11:27:53;;;;;;;12.40;8.17;;;;;;;;;;5115684;28;20500;-55
2022/03/18 11:30:26;;;;;;;16.03;8.23;;;;;;;;;;5097404;28;20429;-55
2022/03/18 11:33:10;;;;;;;18.40;8.33;;;;;;;;;;5115828;28;20451;-52
2022/03/18 11:35:49;;;;;;;14.43;7.43;;;;;;;;;;5097355;28;20413;-51
2022/03/18 11:38:15;;;;;;;16.07;6.77;;;;;;;;;;5097363;28;20413;-51
2022/03/18 11:41:14;;;;;;;15.37;6.80;;;;;;;;;;5115461;28;20413;-54
2022/03/18 11:43:40;;;;;;;16.23;7.30;;;;;;;;;;5060076;28;20433;-54
2022/03/18 11:46:16;;;;;;;18.43;8.07;;;;;;;;;;5115637;28;20438;-55
2022/03/18 11:48:43;;;;;;;12.07;6.90;;;;;;;;;;5115009;28;20468;-56
2022/03/18 11:51:29;;;;;;;20.57;10.57;;;;;;;;;;5114792;28;20404;-53
2022/03/18 11:54:00;;;;;;;18.90;8.50;;;;;;;;;;5114896;28;20416;-60
2022/03/18 11:56:45;;;;;;;17.80;8.10;;;;;;;;;;5114829;28;20497;-61
2022/03/18 11:59:29;;;;;;;17.23;7.30;;;;;;;;;;5114852;28;20484;-61
2022/03/18 12:01:55;;;;;;;14.17;7.37;;;;;;;;;;5114660;28;20723;-57
2022/03/18 12:04:34;;;;;;;15.20;7.40;;;;;;;;;;5096146;28;20446;-62
2022/03/18 12:07:19;;;;;;;12.33;7.20;;;;;;;;;;5114744;28;20507;-58
2022/03/18 12:09:55;;;;;;;18.37;8.03;;;;;;;;;;5095888;28;21027;-63
2022/03/18 12:12:22;;;;;;;19.60;9.20;;;;;;;;;;5114497;28;20901;-56
2022/03/18 12:14:48;;;;;;;12.73;7.70;;;;;;;;;;5114582;28;20409;-61
2022/03/18 12:17:14;;;;;;;13.70;7.73;;;;;;;;;;5114569;28;20405;-58
2022/03/18 12:19:50;;;;;;;20.90;8.27;;;;;;;;;;5114381;28;20946;-55
2022/03/18 12:22:18;;;;;;;13.33;7.40;;;;;;;;;;5114204;28;20405;-56
2022/03/18 12:24:45;;;;;;;18.80;7.97;;;;;;;;;;5114355;28;20436;-53
2022/03/18 12:27:11;;;;;;;19.83;7.10;;;;;;;;;;5096146;28;20435;-52
2022/03/18 12:29:37;;;;;;;17.40;6.90;;;;;;;;;;5114309;28;20514;-56
2022/03/18 12:32:04;;;;;;;19.20;7.30;;;;;;;;;;5095913;28;20413;-57
2022/03/18 12:34:30;;;;;;;16.17;7.13;;;;;;;;;;5113966;28;20887;-58
2022/03/18 12:36:56;;;;;;;20.67;7.20;;;;;;;;;;5114149;28;20807;-58
2022/03/18 12:39:26;;;;;;;9.70;7.10;;;;;;;;;;5114089;28;20409;-57
2022/03/18 12:42:04;;;;;;;11.13;7.30;;;;;;;;;;5095667;28;20482;-59
2022/03/18 12:44:33;;;;;;;15.47;6.93;;;;;;;;;;5114110;28;20409;-58
2022/03/18 12:46:59;;;;;;;15.50;7.10;;;;;;;;;;5113975;28;20444;-55
2022/03/18 12:49:32;;;;;;;15.40;8.00;;;;;;;;;;5113714;28;20496;-53
2022/03/18 12:51:59;;;;;;;14.20;7.10;;;;;;;;;;5095700;28;20458;-57
2022/03/18 12:54:27;;;;;;;19.87;7.93;;;;;;;;;;5113529;28;20402;-62
2022/03/18 12:56:53;;;;;;;9.97;7.00;;;;;;;;;;5113929;28;20762;-60
2022/03/18 12:59:20;;;;;;;13.80;6.80;;;;;;;;;;5113809;28;20409;-59
2022/03/18 13:01:53;;;;;;;12.23;7.27;;;;;;;;;;5113695;28;20921;-61
2022/03/18 13:04:20;;;;;;;20.27;7.67;;;;;;;;;;5113414;28;20405;-59
2022/03/18 13:06:50;;;;;;;12.60;7.10;;;;;;;;;;5113514;28;20409;-57
2022/03/18 13:09:16;;;;;;;11.20;6.50;;;;;;;;;;5113389;28;20471;-52
2022/03/18 13:11:43;;;;;;;14.87;6.37;;;;;;;;;;5113264;28;21022;-55
2022/03/18 13:14:10;;;;;;;14.07;6.30;;;;;;;;;;5113278;28;20409;-53
2022/03/18 13:16:46;;;;;;;9.33;6.00;;;;;;;;;;5113643;28;20812;-57
2022/03/18 13:19:12;;;;;;;10.23;6.60;;;;;;;;;;5113113;28;20788;-59
2022/03/18 13:21:39;;;;;;;13.80;6.97;;;;;;;;;;5113629;28;20405;-61
2022/03/18 13:24:06;;;;;;;12.33;6.80;;;;;;;;;;5113328;28;20485;-63
2022/03/18 13:26:32;;;;;;;10.13;5.83;;;;;;;;;;5095008;28;20508;-54
2022/03/18 13:28:58;;;;;;;10.97;6.40;;;;;;;;;;5113177;28;20855;-54
2022/03/18 13:34:09;;;;;;;9.07;5.80;;;;;;;;;;5113030;28;20970;-60
2022/03/18 13:36:38;;;;;;;6.90;5.47;;;;;;;;;;5113138;28;20405;-63
2022/03/18 13:39:06;;;;;;;10.30;5.10;;;;;;;;;;5113300;28;20470;-62
2022/03/18 13:41:44;;;;;;;10.67;5.50;;;;;;;;;;5112918;28;20792;-57
2022/03/18 13:44:11;;;;;;;12.60;6.07;;;;;;;;;;5094744;28;20950;-61
2022/03/18 13:46:37;;;;;;;15.07;8.60;;;;;;;;;;5112417;28;20963;-59
2022/03/18 13:49:11;;;;;;;7.63;5.20;;;;;;;;;;5112821;28;20467;-62
2022/03/18 13:51:38;;;;;;;9.97;5.40;;;;;;;;;;5112899;28;20419;-60
2022/03/18 13:54:08;;;;;;;10.37;5.60;;;;;;;;;;5113122;28;20409;-52
2022/03/18 13:56:34;;;;;;;10.20;5.47;;;;;;;;;;5112920;28;20415;-58
2022/03/18 13:59:09;;;;;;;17.47;8.67;;;;;;;;;;5094553;28;20417;-55
2022/03/18 14:01:35;;;;;;;9.73;6.10;;;;;;;;;;5112723;28;20807;-60
2022/03/18 14:04:01;;;;;;;5.23;4.40;;;;;;;;;;5112611;28;20458;-57
2022/03/18 14:06:27;;;;;;;9.57;5.20;;;;;;;;;;5112386;28;20897;-59
2022/03/18 14:08:54;;;;;;;9.87;5.47;;;;;;;;;;5112406;28;21044;-64
2022/03/18 14:14:21;;;;;;;14.17;6.67;;;;;;;;;;5112323;28;20424;-65
2022/03/18 14:17:25;;;;;;;14.67;6.00;;;;;;;;;;5112539;28;20806;-63
2022/03/18 14:20:12;;;;;;;8.20;4.60;;;;;;;;;;5009747;28;20500;-66
2022/03/18 14:22:42;;;;;;;12.90;5.90;;;;;;;;;;5009938;28;20479;-55
2022/03/18 14:25:18;;;;;;;7.37;5.40;;;;;;;;;;5058229;28;20758;-55
2022/03/18 14:27:45;;;;;;;12.73;5.40;;;;;;;;;;5112186;28;20437;-60
2022/03/18 14:30:12;;;;;;;5.47;4.63;;;;;;;;;;5112015;28;20468;-56
2022/03/18 14:32:39;;;;;;;9.60;5.43;;;;;;;;;;5112274;28;20433;-54
2022/03/18 14:35:05;;;;;;;6.50;4.80;;;;;;;;;;5112436;28;20400;-59
2022/03/18 14:37:32;;;;;;;15.67;5.37;;;;;;;;;;5112212;28;20405;-56
2022/03/18 14:39:58;;;;;;;4.63;4.20;;;;;;;;;;5112038;28;20393;-56
2022/03/18 14:42:26;;;;;;;8.93;5.30;;;;;;;;;;5093683;28;20404;-58
2022/03/18 14:44:52;;;;;;;5.43;4.43;;;;;;;;;;5112017;28;20397;-62
2022/03/18 14:47:17;;;;;;;8.77;4.77;;;;;;;;;;5112093;28;20449;-57
2022/03/18 14:49:43;;;;;;;13.77;4.13;;;;;;;;;;5093659;28;20471;-56
2022/03/18 14:52:09;;;;;;;8.03;4.50;;;;;;;;;;5093531;28;20405;-59
2022/03/18 14:57:23;;;;;;;5.50;4.70;;;;;;;;;;5112007;28;20412;-58
2022/03/18 14:59:49;;;;;;;6.13;4.67;;;;;;;;;;5116178;28;20787;-61
2022/03/18 15:02:16;;;;;;;6.10;4.30;;;;;;;;;;5115877;28;20400;-58
2022/03/18 15:04:44;;;;;;;8.47;5.40;;;;;;;;;;5116059;28;20959;-59